Time;durP1;ratioP1;P1;durP2;ratioP2;P2;SDS_P1;SDS_P2;PMS_P1;PMS_P2;Temp;Humidity;BMP_temperature;BMP_pressure;BME280_temperature;BME280_humidity;BME280_pressure;Samples;Min_cycle;Max_cycle;Signal;HPM_P1;HPM_P2
2022/02/04 00:24:31;;;;;;;9.93;6.75;;;5.60;99.90;;;;;;6256662;23;20333;-88
2022/02/04 00:27:04;;;;;;;8.05;5.55;;;5.60;99.90;;;;;;6219633;23;20000;-89
2022/02/04 00:29:38;;;;;;;11.07;6.60;;;5.70;99.90;;;;;;6219735;23;20078;-89
2022/02/04 00:32:08;;;;;;;8.00;5.95;;;5.60;99.90;;;;;;6219605;23;20001;-89
2022/02/04 00:34:40;;;;;;;8.10;5.70;;;5.60;99.90;;;;;;6219701;23;20000;-89
2022/02/04 00:37:21;;;;;;;7.65;5.68;;;5.60;99.90;;;;;;6219568;23;20389;-89
2022/02/04 00:39:55;;;;;;;8.63;5.65;;;5.60;99.90;;;;;;6219758;23;20004;-89
2022/02/04 00:42:21;;;;;;;8.52;6.05;;;5.60;99.90;;;;;;6221063;23;20434;-89
2022/02/04 00:44:48;;;;;;;8.60;5.93;;;5.60;99.90;;;;;;6219480;23;20083;-89
2022/02/04 00:47:21;;;;;;;9.07;5.50;;;5.60;99.90;;;;;;6219534;23;20016;-89
2022/02/04 00:50:03;;;;;;;8.48;5.68;;;5.60;99.90;;;;;;6246300;23;20436;-89
2022/02/04 00:52:44;;;;;;;6.78;5.20;;;5.60;99.90;;;;;;6218801;23;20000;-89
2022/02/04 01:27:21;;;;;;;5.43;4.05;;;5.50;99.90;;;;;;6249731;23;20092;-89
2022/02/04 01:30:02;;;;;;;7.47;4.88;;;5.60;99.90;;;;;;6222677;23;20020;-89
2022/02/04 01:32:28;;;;;;;5.32;3.90;;;5.50;99.90;;;;;;6222814;23;19996;-89
2022/02/04 01:34:54;;;;;;;6.18;4.47;;;5.60;99.90;;;;;;6249629;23;20004;-89
2022/02/04 01:37:20;;;;;;;5.80;4.28;;;5.60;99.90;;;;;;6223479;23;20015;-89
2022/02/04 01:39:46;;;;;;;5.30;4.20;;;5.50;99.90;;;;;;6222832;23;20011;-89
2022/02/04 01:42:11;;;;;;;5.38;4.10;;;5.50;99.90;;;;;;6222939;23;20058;-89
2022/02/04 01:44:37;;;;;;;5.88;4.22;;;5.50;99.90;;;;;;6222416;23;20011;-89
2022/02/04 01:47:04;;;;;;;5.30;3.72;;;5.50;99.90;;;;;;6222757;23;20003;-89
2022/02/04 01:49:30;;;;;;;6.28;4.35;;;5.50;99.90;;;;;;6217703;23;20013;-89
2022/02/04 01:51:56;;;;;;;6.90;3.80;;;5.50;99.90;;;;;;6217774;23;20095;-89
2022/02/04 01:54:23;;;;;;;6.35;4.50;;;5.50;99.90;;;;;;6218410;23;20476;-89
2022/02/04 01:56:50;;;;;;;4.80;3.85;;;5.50;99.90;;;;;;6217593;23;20011;-89
2022/02/04 01:59:16;;;;;;;4.90;3.58;;;5.50;99.90;;;;;;6217600;23;20083;-89
2022/02/04 02:01:42;;;;;;;5.65;3.88;;;5.50;99.90;;;;;;6217659;23;20031;-89
2022/02/04 02:04:11;;;;;;;4.13;3.47;;;5.50;99.90;;;;;;6219421;23;20013;-89
2022/02/04 02:06:54;;;;;;;5.47;3.70;;;5.50;99.90;;;;;;6217553;23;20438;-89
2022/02/04 02:09:24;;;;;;;5.55;3.63;;;5.50;99.90;;;;;;6217741;23;20004;-89
2022/02/04 02:11:54;;;;;;;4.47;3.60;;;5.50;99.90;;;;;;6217686;23;20100;-89
2022/02/04 02:14:23;;;;;;;5.57;3.85;;;5.50;99.90;;;;;;6217882;23;20012;-89
2022/02/04 02:44:09;;;;;;;4.30;3.40;;;5.50;99.90;;;;;;6227722;23;20035;-89
2022/02/04 02:46:49;;;;;;;4.95;3.67;;;5.50;99.90;;;;;;6216015;23;20059;-89
2022/02/04 02:52:03;;;;;;;3.83;3.20;;;5.50;99.90;;;;;;6227784;23;20001;-89
2022/02/04 03:02:10;;;;;;;3.70;2.83;;;5.50;99.90;;;;;;6217748;23;20095;-89
2022/02/04 03:04:35;;;;;;;6.22;3.33;;;5.50;99.90;;;;;;6215590;23;20047;-89
2022/02/04 03:07:01;;;;;;;3.45;2.95;;;5.50;99.90;;;;;;6215496;23;20005;-89
2022/02/04 03:09:27;;;;;;;4.25;3.22;;;5.50;99.90;;;;;;6215365;23;19997;-89
2022/02/04 03:11:52;;;;;;;4.97;3.40;;;5.50;99.90;;;;;;6215608;23;20004;-89
2022/02/04 03:14:18;;;;;;;4.50;3.38;;;5.50;99.90;;;;;;6216877;23;19997;-89
2022/02/04 03:16:45;;;;;;;4.53;3.45;;;5.50;99.90;;;;;;6215387;23;20001;-89
2022/02/04 03:19:11;;;;;;;3.58;3.08;;;5.50;99.90;;;;;;6216140;23;20430;-88
2022/02/04 03:21:43;;;;;;;4.95;3.10;;;5.50;99.90;;;;;;6215560;23;20088;-89
2022/02/04 03:24:16;;;;;;;3.97;3.10;;;5.50;99.90;;;;;;6215788;23;20039;-89
2022/02/04 03:29:10;;;;;;;4.78;2.90;;;5.50;99.90;;;;;;6217520;23;20008;-89
2022/02/04 03:31:42;;;;;;;3.85;3.03;;;5.50;99.90;;;;;;6215411;23;20005;-90
2022/02/04 03:34:08;;;;;;;4.53;3.22;;;5.50;99.90;;;;;;6215498;23;20084;-89
2022/02/04 03:36:34;;;;;;;3.88;3.10;;;5.50;99.90;;;;;;6215290;23;20067;-89
2022/02/04 03:38:59;;;;;;;3.22;2.92;;;5.50;99.90;;;;;;6215096;23;20004;-89
2022/02/04 03:41:25;;;;;;;5.70;3.03;;;5.50;99.90;;;;;;6217159;23;19997;-89
2022/02/04 03:43:50;;;;;;;3.92;2.80;;;5.50;99.90;;;;;;6215132;23;20001;-89
2022/02/04 03:46:16;;;;;;;3.30;2.58;;;5.50;99.90;;;;;;6216588;23;20000;-89
2022/02/04 03:48:42;;;;;;;4.70;3.45;;;5.50;99.90;;;;;;6214837;23;20012;-89
2022/02/04 03:51:07;;;;;;;3.50;2.72;;;5.50;99.90;;;;;;6215999;23;20317;-89
2022/02/04 03:53:33;;;;;;;5.50;2.97;;;5.50;99.90;;;;;;6214983;23;20004;-89
2022/02/04 03:55:59;;;;;;;4.00;2.97;;;5.50;99.90;;;;;;6215100;23;20004;-89
2022/02/04 03:58:25;;;;;;;4.13;2.45;;;5.50;99.90;;;;;;6214969;23;20053;-89
2022/02/04 04:00:50;;;;;;;5.20;2.83;;;5.50;99.90;;;;;;6214922;23;20008;-88
2022/02/04 04:03:16;;;;;;;4.65;3.33;;;5.40;99.90;;;;;;6215876;23;20009;-89
2022/02/04 04:05:46;;;;;;;3.25;2.60;;;5.50;99.90;;;;;;6214611;23;20441;-89
2022/02/04 04:08:14;;;;;;;4.65;3.05;;;5.50;99.90;;;;;;6214966;23;20005;-89
2022/02/04 04:10:41;;;;;;;3.58;2.95;;;5.50;99.90;;;;;;6215087;23;20000;-89
2022/02/04 04:13:08;;;;;;;3.50;2.72;;;5.50;99.90;;;;;;6214881;23;20429;-89
2022/02/04 04:15:34;;;;;;;4.38;2.70;;;5.50;99.90;;;;;;6216668;23;20001;-89
2022/02/04 04:18:01;;;;;;;3.72;2.92;;;5.50;99.90;;;;;;6214824;23;20031;-89
2022/02/04 04:20:28;;;;;;;3.80;3.00;;;5.50;99.90;;;;;;6215140;23;20083;-89
2022/02/04 04:22:55;;;;;;;3.72;2.70;;;5.50;99.90;;;;;;6215015;23;20036;-89
2022/02/04 04:25:21;;;;;;;5.47;3.30;;;5.50;99.90;;;;;;6215411;23;20004;-89
2022/02/04 04:27:48;;;;;;;4.07;3.08;;;5.50;99.90;;;;;;6214954;23;20000;-89
2022/02/04 04:30:16;;;;;;;3.85;2.65;;;5.50;99.90;;;;;;6214511;23;20012;-89
2022/02/04 04:32:43;;;;;;;4.45;2.90;;;5.50;99.90;;;;;;6214798;23;20007;-89
2022/02/04 04:35:11;;;;;;;3.72;2.97;;;5.50;99.90;;;;;;6214681;23;20083;-89
2022/02/04 04:37:42;;;;;;;3.50;2.95;;;5.50;99.90;;;;;;6214625;23;20009;-89
2022/02/04 05:31:17;;;;;;;3.97;3.25;;;5.40;99.90;;;;;;6256647;23;20000;-89
2022/02/04 05:33:43;;;;;;;4.20;3.30;;;5.40;99.90;;;;;;6219955;23;20459;-89
2022/02/04 05:36:10;;;;;;;4.35;3.38;;;5.40;99.90;;;;;;6219884;23;20011;-89
2022/02/04 05:38:37;;;;;;;4.70;3.47;;;5.40;99.90;;;;;;6219387;23;20011;-89
2022/02/04 05:41:05;;;;;;;5.25;3.20;;;5.40;99.90;;;;;;6194507;23;20024;-89
2022/02/04 05:43:34;;;;;;;5.25;3.53;;;5.40;99.90;;;;;;6219364;23;20004;-90
2022/02/04 05:46:04;;;;;;;4.85;3.20;;;5.40;99.90;;;;;;6245889;23;20000;-90
2022/02/04 05:48:32;;;;;;;3.60;3.22;;;5.40;99.90;;;;;;6213962;23;20052;-89
2022/02/04 05:51:22;;;;;;;4.82;3.30;;;5.40;99.90;;;;;;6214370;23;20051;-89
2022/02/04 05:56:40;;;;;;;4.47;3.00;;;5.40;99.90;;;;;;6216585;23;20062;-89
2022/02/04 05:59:24;;;;;;;4.93;3.83;;;5.40;99.90;;;;;;6216127;23;20005;-89
2022/02/04 06:02:00;;;;;;;3.88;3.20;;;5.40;99.90;;;;;;6216339;23;20005;-90
2022/02/04 06:04:41;;;;;;;4.63;3.50;;;5.40;99.90;;;;;;6216166;23;20012;-90
2022/02/04 06:23:13;;;;;;;5.03;4.07;;;5.40;99.90;;;;;;6218097;23;20149;-89
2022/02/04 06:25:40;;;;;;;4.88;3.22;;;5.40;99.90;;;;;;6216189;23;20004;-89
2022/02/04 06:28:07;;;;;;;6.00;3.53;;;5.40;99.90;;;;;;6216197;23;20425;-89
2022/02/04 06:30:33;;;;;;;4.05;3.30;;;5.40;99.90;;;;;;6216178;23;20011;-89
2022/02/04 06:32:59;;;;;;;4.85;3.58;;;5.40;99.90;;;;;;6216268;23;20062;-89
2022/02/04 06:35:25;;;;;;;5.07;3.88;;;5.40;99.90;;;;;;6216143;23;20083;-88
2022/02/04 06:37:50;;;;;;;4.88;3.70;;;5.40;99.90;;;;;;6216135;23;20471;-89
2022/02/04 06:40:16;;;;;;;5.43;3.75;;;5.40;99.90;;;;;;6216899;23;20330;-89
2022/02/04 06:42:42;;;;;;;5.57;3.30;;;5.40;99.90;;;;;;6216065;23;20066;-89
2022/02/04 06:45:08;;;;;;;4.15;3.30;;;5.40;99.90;;;;;;6215842;23;20008;-89
2022/02/04 06:47:35;;;;;;;5.75;3.53;;;5.40;99.90;;;;;;6215841;23;20433;-88
2022/02/04 06:50:01;;;;;;;4.82;3.53;;;5.40;99.90;;;;;;6215734;23;20108;-89
2022/02/04 06:52:26;;;;;;;6.50;3.50;;;5.40;99.90;;;;;;6216017;23;20023;-90
2022/02/04 06:54:52;;;;;;;4.68;3.50;;;5.40;99.90;;;;;;6215984;23;20008;-89
2022/02/04 06:57:18;;;;;;;4.78;3.33;;;5.40;99.90;;;;;;6216027;23;20087;-89
2022/02/04 06:59:46;;;;;;;5.18;3.63;;;5.30;99.90;;;;;;6217210;23;20004;-89
2022/02/04 07:02:12;;;;;;;4.15;3.47;;;5.40;99.90;;;;;;6216178;23;20012;-90
2022/02/04 07:04:38;;;;;;;4.90;3.88;;;5.40;99.90;;;;;;6215563;23;20008;-89
2022/02/04 07:07:04;;;;;;;3.90;3.10;;;5.40;99.90;;;;;;6216180;23;20004;-89
2022/02/04 07:12:18;;;;;;;5.63;3.58;;;5.40;99.90;;;;;;6217139;23;20004;-88
2022/02/04 07:17:57;;;;;;;4.95;3.80;;;5.40;99.90;;;;;;6217140;23;20442;-87
2022/02/04 07:20:02;;;;;;;4.93;3.47;;;5.40;99.90;;;;;;6214228;23;20005;-88
2022/02/04 07:22:34;;;;;;;5.65;4.28;;;5.30;99.90;;;;;;6216835;23;20000;-88
2022/02/04 07:25:05;;;;;;;5.10;3.22;;;5.30;99.90;;;;;;6216374;23;20325;-88
2022/02/04 07:27:33;;;;;;;4.15;3.47;;;5.30;99.90;;;;;;6190510;23;20114;-89
2022/02/04 07:29:59;;;;;;;5.05;3.58;;;5.30;99.90;;;;;;6215182;23;20001;-89
2022/02/04 07:42:58;;;;;;;6.05;4.40;;;5.30;99.90;;;;;;6182159;23;20338;-88
2022/02/04 07:45:24;;;;;;;6.13;3.95;;;5.40;99.90;;;;;;6214858;23;20011;-90
2022/02/04 07:47:50;;;;;;;4.93;4.22;;;5.40;99.90;;;;;;6215043;23;20000;-89
2022/02/04 07:50:21;;;;;;;5.88;4.35;;;5.40;99.90;;;;;;6214984;23;20346;-89
2022/02/04 07:52:54;;;;;;;7.00;4.57;;;5.40;99.90;;;;;;6215116;23;20001;-89
2022/02/04 07:55:22;;;;;;;;;;;5.40;99.90;;;;;;6191146;23;20025;-89
2022/02/04 07:57:48;;;;;;;7.15;4.65;;;5.40;99.90;;;;;;6215126;23;20324;-88
2022/02/04 08:00:16;;;;;;;4.93;4.18;;;5.40;99.90;;;;;;6214994;23;20004;-89
2022/02/04 08:02:44;;;;;;;6.95;4.82;;;5.40;99.90;;;;;;6215038;23;20004;-90
2022/02/04 08:05:13;;;;;;;5.80;4.50;;;5.40;99.90;;;;;;6214739;23;20341;-89
2022/02/04 08:07:50;;;;;;;4.68;3.97;;;5.40;99.90;;;;;;6214881;23;20004;-89
2022/02/04 08:15:46;;;;;;;6.88;4.80;;;5.50;99.90;;;;;;6226789;23;20337;-89
2022/02/04 08:18:56;;;;;;;4.90;3.90;;;6.10;99.90;;;;;;6216286;23;20004;-89
2022/02/04 08:26:43;;;;;;;5.25;4.13;;;6.80;99.90;;;;;;6217075;23;20008;-89
2022/02/04 08:29:21;;;;;;;6.43;4.35;;;7.10;99.90;;;;;;6216104;23;20019;-88
2022/02/04 08:55:38;;;;;;;5.75;4.63;;;6.70;99.90;;;;;;6256853;23;20004;-89
2022/02/04 08:58:24;;;;;;;8.52;5.32;;;6.50;99.90;;;;;;6219520;23;20448;-89
2022/02/04 09:03:35;;;;;;;7.85;5.22;;;6.20;99.90;;;;;;6256738;23;20087;-88
2022/02/04 09:06:13;;;;;;;7.57;5.63;;;6.20;99.90;;;;;;6220391;23;20425;-88
2022/02/04 09:08:43;;;;;;;7.63;5.55;;;6.10;99.90;;;;;;6219499;23;20010;-90
2022/02/04 09:11:16;;;;;;;7.07;5.70;;;6.10;99.90;;;;;;6220603;23;20008;-89
2022/02/04 09:19:48;;;;;;;7.32;5.30;;;6.00;99.90;;;;;;6154288;23;20248;-89
2022/02/04 09:22:25;;;;;;;8.35;6.00;;;5.90;99.90;;;;;;6128847;23;20006;-88
2022/02/04 09:24:51;;;;;;;9.25;5.80;;;6.00;99.90;;;;;;6186874;23;20012;-89
2022/02/04 09:27:16;;;;;;;7.38;5.53;;;6.00;99.90;;;;;;6219317;23;20039;-89
2022/02/04 09:29:42;;;;;;;8.85;5.78;;;6.00;99.90;;;;;;6219747;23;20007;-89
2022/02/04 09:32:10;;;;;;;8.40;5.90;;;5.90;99.90;;;;;;6221518;23;20004;-88
2022/02/04 09:34:36;;;;;;;11.00;6.13;;;5.90;99.90;;;;;;6221495;23;20004;-89
2022/02/04 09:37:02;;;;;;;7.88;5.97;;;5.90;99.90;;;;;;6221058;23;20088;-89
2022/02/04 09:39:28;;;;;;;7.00;5.50;;;5.90;99.90;;;;;;6221260;23;20004;-89
2022/02/04 09:41:54;;;;;;;8.25;5.63;;;5.90;99.90;;;;;;6221086;23;20387;-88
2022/02/04 09:44:32;;;;;;;7.82;5.97;;;5.90;99.90;;;;;;6221394;23;20011;-89
2022/02/04 09:46:58;;;;;;;8.38;5.85;;;5.90;99.90;;;;;;6221891;23;20433;-87
2022/02/04 09:49:29;;;;;;;9.05;5.97;;;5.80;99.90;;;;;;6215832;23;20047;-89
2022/02/04 10:17:06;;;;;;;7.63;5.55;;;5.70;99.90;;;;;;6227389;23;20441;-89
2022/02/04 10:22:16;;;;;;;6.55;4.82;;;5.80;99.90;;;;;;6227942;23;20083;-89
2022/02/04 10:24:42;;;;;;;6.50;4.47;;;5.70;99.90;;;;;;6215564;23;20054;-88
2022/02/04 10:27:18;;;;;;;6.13;4.53;;;5.70;99.90;;;;;;6217130;23;20001;-88
2022/02/04 10:29:59;;;;;;;6.50;4.68;;;5.70;99.90;;;;;;6216711;23;20375;-87
2022/02/04 10:32:31;;;;;;;6.38;4.20;;;5.70;99.90;;;;;;6216470;23;20008;-88
2022/02/04 10:35:05;;;;;;;5.20;4.22;;;5.70;99.90;;;;;;6215583;23;20345;-89
2022/02/04 10:37:37;;;;;;;5.00;4.20;;;5.70;99.90;;;;;;6215690;23;20015;-88
2022/02/04 10:40:22;;;;;;;5.13;3.72;;;5.70;99.90;;;;;;6216635;23;20326;-88
2022/02/04 10:45:52;;;;;;;6.13;4.50;;;5.70;99.90;;;;;;6227552;23;20437;-89
2022/02/04 10:59:47;;;;;;;5.35;3.92;;;5.70;99.90;;;;;;6257657;23;20447;-87
2022/02/04 11:04:02;;;;;;;4.22;3.60;;;5.70;99.90;;;;;;6247836;23;20015;-88
2022/02/04 11:32:26;;;;;;;3.65;2.72;;;5.80;99.90;;;;;;6247338;23;20011;-88
2022/02/04 11:43:50;;;;;;;3.67;2.63;;;5.80;99.90;;;;;;6247341;23;20054;-87
2022/02/04 11:52:07;;;;;;;3.97;2.33;;;5.80;99.90;;;;;;6204426;23;20004;-87
2022/02/04 11:54:43;;;;;;;3.30;2.60;;;5.80;99.90;;;;;;6219721;23;20008;-86
2022/02/04 11:57:10;;;;;;;4.00;2.53;;;5.80;99.90;;;;;;6219578;23;20036;-87
2022/02/04 11:59:45;;;;;;;2.65;2.13;;;5.80;99.90;;;;;;6219745;23;20011;-88
2022/02/04 12:02:29;;;;;;;3.03;2.20;;;5.80;99.90;;;;;;6246697;23;20004;-87
2022/02/04 12:05:22;;;;;;;2.78;2.25;;;5.70;99.90;;;;;;6219628;23;20030;-87
2022/02/04 12:07:50;;;;;;;3.70;2.58;;;5.70;99.90;;;;;;6219669;23;20081;-88
2022/02/04 12:10:16;;;;;;;4.00;2.42;;;5.70;99.90;;;;;;6219722;23;20008;-88
2022/02/04 12:12:57;;;;;;;3.08;2.17;;;5.70;99.90;;;;;;6219729;23;20008;-87
2022/02/04 12:15:31;;;;;;;3.65;2.40;;;5.70;99.90;;;;;;6219638;23;20024;-87
2022/02/04 12:18:11;;;;;;;2.53;2.08;;;5.70;99.90;;;;;;6219450;23;20010;-87
2022/02/04 12:20:57;;;;;;;3.65;2.00;;;5.70;99.90;;;;;;6219623;23;20432;-87
2022/02/04 12:23:26;;;;;;;2.95;2.13;;;5.70;99.90;;;;;;6246789;23;20400;-85
2022/02/04 12:26:16;;;;;;;3.42;2.30;;;5.70;99.90;;;;;;6219269;23;20004;-86
2022/02/04 12:29:01;;;;;;;2.58;1.98;;;5.70;99.90;;;;;;6246228;23;20007;-87
2022/02/04 12:31:32;;;;;;;2.70;2.10;;;5.70;99.90;;;;;;6246441;23;20421;-87
2022/02/04 12:34:13;;;;;;;2.58;2.00;;;5.70;99.90;;;;;;6219444;23;20000;-86
2022/02/04 12:36:45;;;;;;;2.33;2.00;;;5.70;99.90;;;;;;6219397;23;20006;-87
2022/02/04 12:39:14;;;;;;;3.10;1.92;;;5.70;99.90;;;;;;6219214;23;20058;-86
2022/02/04 12:41:46;;;;;;;2.83;2.20;;;5.70;99.90;;;;;;6219253;23;20000;-87
2022/02/04 12:44:13;;;;;;;3.13;2.40;;;5.70;99.90;;;;;;6219420;23;20440;-88
2022/02/04 12:46:41;;;;;;;2.92;1.98;;;5.70;99.90;;;;;;6246110;23;20374;-88
2022/02/04 12:49:28;;;;;;;2.38;1.98;;;5.70;99.90;;;;;;6214431;23;20017;-88
2022/02/04 12:52:04;;;;;;;3.13;2.30;;;5.70;99.90;;;;;;6214328;23;20013;-87
2022/02/04 12:54:50;;;;;;;4.05;2.58;;;5.70;99.90;;;;;;6214372;23;20004;-87
2022/02/04 13:08:12;;;;;;;2.85;2.10;;;5.80;99.90;;;;;;6216235;23;20016;-87
2022/02/04 13:10:38;;;;;;;;;;;5.80;99.90;;;;;;6216327;23;20438;-88
2022/02/04 13:13:08;;;;;;;2.72;2.03;;;5.80;99.90;;;;;;6214321;23;20241;-86
2022/02/04 13:15:37;;;;;;;2.58;1.85;;;5.80;99.90;;;;;;6216149;23;20028;-87
2022/02/04 13:18:08;;;;;;;2.88;2.05;;;5.90;99.90;;;;;;6214232;23;20075;-87
2022/02/04 13:20:36;;;;;;;3.60;2.40;;;5.90;99.90;;;;;;6215911;23;20307;-88
2022/02/04 13:23:27;;;;;;;2.60;2.00;;;5.90;99.90;;;;;;6214293;23;20001;-87
2022/02/04 13:25:57;;;;;;;2.63;1.60;;;5.90;99.90;;;;;;6214405;23;20008;-88
2022/02/04 13:28:36;;;;;;;4.15;2.00;;;6.00;99.90;;;;;;6214376;23;20336;-87
2022/02/04 13:31:05;;;;;;;3.13;2.05;;;6.00;99.90;;;;;;6215741;23;20076;-88
2022/02/04 13:33:31;;;;;;;2.47;1.90;;;5.90;99.90;;;;;;6214247;23;20427;-88
2022/02/04 13:36:04;;;;;;;7.07;1.70;;;6.00;99.90;;;;;;6214221;23;20043;-90
2022/02/04 13:44:36;;;;;;;1.98;1.52;;;5.90;99.90;;;;;;6226316;23;20087;-86
2022/02/04 13:50:10;;;;;;;3.47;1.60;;;5.90;99.90;;;;;;6238775;23;20020;-87
2022/02/04 13:55:35;;;;;;;2.63;1.80;;;5.90;99.90;;;;;;6247076;23;20012;-86
2022/02/04 13:58:16;;;;;;;3.03;1.85;;;5.90;99.90;;;;;;6219137;23;20443;-86
2022/02/04 14:00:50;;;;;;;2.97;1.65;;;5.90;99.90;;;;;;6219262;23;20028;-87
2022/02/04 14:03:23;;;;;;;2.58;1.70;;;5.90;99.90;;;;;;6219206;23;20377;-87
2022/02/04 14:06:09;;;;;;;2.35;1.50;;;5.90;99.90;;;;;;6219032;23;20000;-88
2022/02/04 14:08:47;;;;;;;1.98;1.60;;;5.90;99.90;;;;;;6219506;23;20026;-89
2022/02/04 14:11:25;;;;;;;3.97;1.20;;;5.90;99.90;;;;;;6219487;23;20000;-88
2022/02/04 14:13:53;;;;;;;2.53;1.60;;;5.90;99.90;;;;;;6219650;23;20004;-88
2022/02/04 14:16:20;;;;;;;2.30;1.75;;;5.90;99.90;;;;;;6245940;23;20417;-87
2022/02/04 14:18:47;;;;;;;2.47;1.40;;;5.90;99.90;;;;;;6220911;23;20011;-87
2022/02/04 14:21:14;;;;;;;2.33;1.60;;;5.80;99.90;;;;;;6220854;23;20012;-87
2022/02/04 14:23:41;;;;;;;2.72;1.70;;;5.90;99.90;;;;;;6220887;23;20004;-86
2022/02/04 14:26:11;;;;;;;1.90;1.50;;;5.80;99.90;;;;;;6247743;23;20004;-87
2022/02/04 14:31:14;;;;;;;2.22;1.70;;;5.80;99.90;;;;;;6248209;23;20007;-87
2022/02/04 15:00:42;;;;;;;1.50;1.20;;;5.70;99.90;;;;;;6247207;23;20015;-88
2022/02/04 15:05:40;;;;;;;2.03;1.30;;;5.70;99.90;;;;;;6247318;23;20035;-88
2022/02/04 15:08:11;;;;;;;1.52;1.20;;;5.70;99.90;;;;;;6220492;23;20027;-85
2022/02/04 15:10:38;;;;;;;1.52;1.20;;;5.70;99.90;;;;;;6220371;23;20027;-86
2022/02/04 15:13:10;;;;;;;1.20;1.05;;;5.70;99.90;;;;;;6247275;23;20071;-87
2022/02/04 15:15:36;;;;;;;3.03;1.17;;;5.70;99.90;;;;;;6220289;23;20004;-86
2022/02/04 15:18:02;;;;;;;1.48;1.20;;;5.70;99.90;;;;;;6220197;23;20036;-86
2022/02/04 15:20:28;;;;;;;2.58;1.30;;;5.70;99.90;;;;;;6220346;23;20030;-86
2022/02/04 15:22:56;;;;;;;1.55;1.05;;;5.70;99.90;;;;;;6220146;23;20015;-89
2022/02/04 15:25:23;;;;;;;2.35;1.33;;;5.70;99.90;;;;;;6220075;23;20008;-87
2022/02/04 15:28:07;;;;;;;4.63;3.90;;;5.70;99.90;;;;;;6220454;23;20055;-89
2022/02/04 15:30:37;;;;;;;2.25;1.65;;;5.70;99.90;;;;;;6220504;23;20380;-87
2022/02/04 15:33:03;;;;;;;2.08;1.35;;;5.70;99.90;;;;;;6247114;23;20008;-89
2022/02/04 15:35:30;;;;;;;2.25;1.48;;;5.70;99.90;;;;;;6220204;23;20057;-90
2022/02/04 15:37:57;;;;;;;3.05;1.55;;;5.70;99.90;;;;;;6220403;23;20389;-89
2022/02/04 15:40:23;;;;;;;2.47;1.63;;;5.70;99.90;;;;;;6220024;23;20019;-89
2022/02/04 15:42:59;;;;;;;1.98;1.60;;;5.70;99.90;;;;;;6220264;23;20004;-90
2022/02/04 15:48:11;;;;;;;2.30;1.40;;;5.70;99.90;;;;;;6247109;23;20004;-89
2022/02/04 15:50:44;;;;;;;3.22;1.73;;;5.70;99.90;;;;;;6220114;23;20020;-89
2022/02/04 16:06:09;;;;;;;1.58;1.23;;;5.70;99.90;;;;;;6253063;23;20058;-90
2022/02/04 16:08:35;;;;;;;1.92;1.25;;;5.70;99.90;;;;;;6220480;23;20027;-89
2022/02/04 16:11:33;;;;;;;2.22;1.65;;;5.70;99.90;;;;;;6219788;23;20000;-91
2022/02/04 16:16:40;;;;;;;1.52;1.20;;;5.70;99.90;;;;;;6257235;23;20008;-89
2022/02/04 16:19:18;;;;;;;3.05;1.30;;;5.70;99.90;;;;;;6220348;23;20015;-88
2022/02/04 16:22:03;;;;;;;1.60;1.40;;;5.70;99.90;;;;;;6221348;23;20012;-89
2022/02/04 16:24:44;;;;;;;3.08;1.70;;;5.60;99.90;;;;;;6224259;23;20050;-85
2022/02/04 16:30:01;;;;;;;2.78;1.65;;;5.70;99.90;;;;;;6190896;23;19997;-85
2022/02/04 16:32:30;;;;;;;2.50;1.60;;;5.70;99.90;;;;;;6247211;23;20001;-89
2022/02/04 16:34:57;;;;;;;2.67;1.40;;;5.60;99.90;;;;;;6219935;23;20095;-90
2022/02/04 16:37:35;;;;;;;2.85;1.60;;;5.70;99.90;;;;;;6221086;23;20057;-89
2022/02/04 16:40:16;;;;;;;2.03;1.50;;;5.60;99.90;;;;;;6219584;23;20010;-89
2022/02/04 16:42:44;;;;;;;1.55;1.30;;;5.60;99.90;;;;;;6246993;23;20000;-89
2022/02/04 16:45:10;;;;;;;2.45;1.67;;;5.70;99.90;;;;;;6246408;23;20027;-88
2022/02/04 16:47:36;;;;;;;5.13;1.77;;;5.60;99.90;;;;;;6246261;23;19996;-88
2022/02/04 16:50:03;;;;;;;2.20;1.42;;;5.60;99.90;;;;;;6214586;23;20039;-87
2022/02/04 16:52:30;;;;;;;3.20;1.83;;;5.60;99.90;;;;;;6214820;23;20059;-86
2022/02/04 16:54:56;;;;;;;4.20;1.58;;;5.70;99.90;;;;;;6214621;23;20039;-87
2022/02/04 16:57:25;;;;;;;2.20;1.58;;;5.70;99.90;;;;;;6216074;23;20517;-89
2022/02/04 16:59:59;;;;;;;2.90;1.75;;;5.70;99.90;;;;;;6216121;23;20083;-88
2022/02/04 17:02:25;;;;;;;2.55;1.50;;;5.60;99.90;;;;;;6214602;23;20342;-90
2022/02/04 17:04:52;;;;;;;2.55;1.58;;;5.60;99.90;;;;;;6214494;23;20001;-89
2022/02/04 17:07:22;;;;;;;3.53;1.60;;;5.70;99.90;;;;;;6214172;23;20002;-86
2022/02/04 17:09:50;;;;;;;1.80;1.23;;;5.70;99.90;;;;;;6214626;23;20079;-89
2022/02/04 17:12:26;;;;;;;2.67;1.60;;;5.60;99.90;;;;;;6214578;23;20001;-89
2022/02/04 17:14:53;;;;;;;5.38;2.30;;;5.70;99.90;;;;;;6215908;23;20001;-88
2022/02/04 17:17:23;;;;;;;2.40;1.63;;;5.70;99.90;;;;;;6214404;23;20005;-89
2022/02/04 17:19:54;;;;;;;2.90;1.63;;;5.60;99.90;;;;;;6216168;23;20370;-88
2022/02/04 17:22:20;;;;;;;2.47;1.63;;;5.60;99.90;;;;;;6214393;23;20001;-89
2022/02/04 17:24:48;;;;;;;2.60;1.65;;;5.60;99.90;;;;;;6215700;23;20004;-89
2022/02/04 17:27:15;;;;;;;1.90;1.48;;;5.60;99.90;;;;;;6214331;23;20070;-88
2022/02/04 17:29:40;;;;;;;2.47;1.48;;;5.70;99.90;;;;;;6214319;23;20005;-88
2022/02/04 17:32:07;;;;;;;2.65;1.50;;;5.60;99.90;;;;;;6214156;23;20459;-89
2022/02/04 17:34:33;;;;;;;2.92;1.63;;;5.60;99.90;;;;;;6215640;23;20287;-89
2022/02/04 17:36:59;;;;;;;2.67;1.80;;;5.60;99.90;;;;;;6214405;23;20001;-89
2022/02/04 17:39:26;;;;;;;1.80;1.42;;;5.70;99.90;;;;;;6214316;23;20008;-86
2022/02/04 17:41:57;;;;;;;2.67;1.50;;;5.60;99.90;;;;;;6214369;23;20001;-89
2022/02/04 17:44:23;;;;;;;3.42;1.52;;;5.70;99.90;;;;;;6216378;23;19996;-89
2022/02/04 17:46:50;;;;;;;1.77;1.52;;;5.60;99.90;;;;;;6214456;23;20008;-88
2022/02/04 17:52:16;;;;;;;1.95;1.50;;;5.60;99.90;;;;;;6247033;23;20473;-88
2022/02/04 17:54:46;;;;;;;1.85;1.27;;;5.60;99.90;;;;;;6245601;23;20031;-88
2022/02/04 17:57:20;;;;;;;4.85;1.33;;;5.60;99.90;;;;;;6221305;23;20008;-89
2022/02/04 18:07:29;;;;;;;3.13;1.50;;;5.60;99.90;;;;;;6258982;23;20004;-88
2022/02/04 18:09:55;;;;;;;1.92;1.40;;;5.70;99.90;;;;;;6221249;23;20024;-88
2022/02/04 18:12:24;;;;;;;4.78;1.70;;;5.70;99.90;;;;;;6247843;23;20034;-90
2022/02/04 18:14:50;;;;;;;2.08;1.70;;;5.70;99.90;;;;;;6221404;23;20392;-90
2022/02/04 18:17:18;;;;;;;2.03;1.50;;;5.60;99.90;;;;;;6221285;23;20075;-89
2022/02/04 18:19:44;;;;;;;1.98;1.60;;;5.70;99.90;;;;;;6221082;23;20012;-89
2022/02/04 18:22:10;;;;;;;2.13;1.42;;;5.60;99.90;;;;;;6221094;23;20318;-89
2022/02/04 18:24:38;;;;;;;2.60;1.77;;;5.60;99.90;;;;;;6220898;23;20318;-89
2022/02/04 18:27:08;;;;;;;3.08;1.92;;;5.60;99.90;;;;;;6220970;23;20012;-88
2022/02/04 18:29:41;;;;;;;2.95;1.73;;;5.70;99.90;;;;;;6220829;23;20468;-89
2022/02/04 18:32:07;;;;;;;2.40;1.70;;;5.70;99.90;;;;;;6221676;23;20014;-89
2022/02/04 18:34:33;;;;;;;2.58;1.83;;;5.60;99.90;;;;;;6221008;23;20000;-89
2022/02/04 18:37:01;;;;;;;2.60;1.92;;;5.60;99.90;;;;;;6220953;23;20011;-88
2022/02/04 18:44:48;;;;;;;3.40;1.98;;;5.70;99.90;;;;;;6248145;23;20011;-89
2022/02/04 18:47:32;;;;;;;5.25;2.25;;;5.70;99.90;;;;;;6220808;23;20008;-88
2022/02/04 18:50:20;;;;;;;7.93;3.38;;;5.60;99.90;;;;;;6215394;23;20016;-89
2022/02/04 18:53:08;;;;;;;5.47;3.03;;;5.60;99.90;;;;;;6217103;23;20012;-89
2022/02/04 18:58:07;;;;;;;5.43;2.70;;;5.60;99.90;;;;;;6227290;23;20392;-88
2022/02/04 19:00:34;;;;;;;5.53;2.90;;;5.70;99.90;;;;;;6215632;23;20012;-90
2022/02/04 19:03:03;;;;;;;5.20;2.63;;;5.60;99.90;;;;;;6215147;23;20012;-89
2022/02/04 19:05:34;;;;;;;5.15;2.75;;;5.60;99.90;;;;;;6215212;23;20004;-88
2022/02/04 19:08:09;;;;;;;4.53;2.72;;;5.60;99.90;;;;;;6215440;23;20008;-91
2022/02/04 19:10:37;;;;;;;4.88;2.72;;;5.60;99.90;;;;;;6215278;23;20004;-87
2022/02/04 19:13:26;;;;;;;5.88;2.70;;;5.60;99.90;;;;;;6215616;23;20429;-88
2022/02/04 19:18:40;;;;;;;3.50;2.40;;;5.70;99.90;;;;;;6226955;23;20009;-88
2022/02/04 19:21:10;;;;;;;7.80;2.30;;;5.70;99.90;;;;;;6215368;23;20032;-88
2022/02/04 19:23:38;;;;;;;4.07;2.40;;;5.70;99.90;;;;;;6216318;23;20084;-89
2022/02/04 19:26:13;;;;;;;4.03;2.05;;;5.60;99.90;;;;;;6216534;23;20005;-86
2022/02/04 19:28:39;;;;;;;4.00;2.30;;;5.60;99.90;;;;;;6215561;23;19996;-88
2022/02/04 19:31:05;;;;;;;3.35;1.98;;;5.70;99.90;;;;;;6215190;23;20008;-88
2022/02/04 19:33:31;;;;;;;2.90;2.03;;;5.60;99.90;;;;;;6215108;23;20008;-88
2022/02/04 19:35:58;;;;;;;4.07;2.10;;;5.70;99.90;;;;;;6215051;23;20336;-87
2022/02/04 19:38:24;;;;;;;3.33;2.03;;;5.70;99.90;;;;;;6217320;23;20028;-89
2022/02/04 19:40:50;;;;;;;2.83;2.08;;;5.70;99.90;;;;;;6217345;23;20000;-89
2022/02/04 19:43:19;;;;;;;3.63;2.13;;;5.70;99.90;;;;;;6215054;23;20005;-89
2022/02/04 19:45:58;;;;;;;4.85;2.53;;;5.60;99.90;;;;;;6214910;23;20345;-88
2022/02/04 19:48:30;;;;;;;3.63;2.10;;;5.70;99.90;;;;;;6217342;23;20028;-89
2022/02/04 20:23:39;;;;;;;5.03;2.40;;;5.70;99.90;;;;;;6246556;23;20015;-89
2022/02/04 20:26:07;;;;;;;4.20;2.20;;;5.70;99.90;;;;;;6219662;23;20428;-89
2022/02/04 20:28:33;;;;;;;4.43;2.33;;;5.70;99.90;;;;;;6246470;23;20000;-89
2022/02/04 20:30:59;;;;;;;2.50;1.77;;;5.70;99.90;;;;;;6219601;23;20043;-89
2022/02/04 20:33:25;;;;;;;3.50;1.92;;;5.70;99.90;;;;;;6246534;23;20324;-88